sensor_id;sensor_type;location;lat;lon;timestamp;temperature;humidity
18105;DHT22;9179;50.968;3.134;2022-07-29T00:00:30;19.20;96.80
18105;DHT22;9179;50.968;3.134;2022-07-29T00:02:57;19.20;97.00
18105;DHT22;9179;50.968;3.134;2022-07-29T00:05:24;19.10;97.10
18105;DHT22;9179;50.968;3.134;2022-07-29T00:07:51;19.00;97.30
18105;DHT22;9179;50.968;3.134;2022-07-29T00:10:19;18.90;97.30
18105;DHT22;9179;50.968;3.134;2022-07-29T00:12:46;18.80;97.50
18105;DHT22;9179;50.968;3.134;2022-07-29T00:15:13;18.70;97.70
18105;DHT22;9179;50.968;3.134;2022-07-29T00:17:40;18.50;98.10
18105;DHT22;9179;50.968;3.134;2022-07-29T00:20:08;18.40;98.50
18105;DHT22;9179;50.968;3.134;2022-07-29T00:22:37;18.30;98.60
18105;DHT22;9179;50.968;3.134;2022-07-29T00:25:05;18.20;98.80
18105;DHT22;9179;50.968;3.134;2022-07-29T00:27:33;18.10;99.10
18105;DHT22;9179;50.968;3.134;2022-07-29T00:30:01;18.00;99.40
18105;DHT22;9179;50.968;3.134;2022-07-29T00:32:28;18.00;99.60
18105;DHT22;9179;50.968;3.134;2022-07-29T00:34:56;17.90;99.90
18105;DHT22;9179;50.968;3.134;2022-07-29T00:37:40;17.90;99.90
18105;DHT22;9179;50.968;3.134;2022-07-29T00:40:08;17.80;99.90
18105;DHT22;9179;50.968;3.134;2022-07-29T00:42:43;17.80;99.90
18105;DHT22;9179;50.968;3.134;2022-07-29T00:45:10;17.70;99.90
18105;DHT22;9179;50.968;3.134;2022-07-29T00:47:37;17.70;99.90
18105;DHT22;9179;50.968;3.134;2022-07-29T00:50:06;17.60;99.90
18105;DHT22;9179;50.968;3.134;2022-07-29T00:52:35;17.60;99.90
18105;DHT22;9179;50.968;3.134;2022-07-29T00:55:02;17.50;99.90
18105;DHT22;9179;50.968;3.134;2022-07-29T00:57:29;17.50;99.90
18105;DHT22;9179;50.968;3.134;2022-07-29T00:59:58;17.50;99.90
18105;DHT22;9179;50.968;3.134;2022-07-29T01:02:25;17.40;99.90
18105;DHT22;9179;50.968;3.134;2022-07-29T01:04:53;17.30;99.90
18105;DHT22;9179;50.968;3.134;2022-07-29T01:07:20;17.20;99.90
18105;DHT22;9179;50.968;3.134;2022-07-29T01:09:47;17.10;99.90
18105;DHT22;9179;50.968;3.134;2022-07-29T01:12:16;17.10;99.90
18105;DHT22;9179;50.968;3.134;2022-07-29T01:14:44;17.00;99.90
18105;DHT22;9179;50.968;3.134;2022-07-29T01:17:18;16.90;99.90
18105;DHT22;9179;50.968;3.134;2022-07-29T01:19:51;16.80;99.90
18105;DHT22;9179;50.968;3.134;2022-07-29T01:22:31;16.70;99.90
18105;DHT22;9179;50.968;3.134;2022-07-29T01:25:20;16.70;99.90
18105;DHT22;9179;50.968;3.134;2022-07-29T01:28:07;16.60;99.90
18105;DHT22;9179;50.968;3.134;2022-07-29T01:30:37;16.50;99.90
18105;DHT22;9179;50.968;3.134;2022-07-29T01:33:09;16.60;99.90
18105;DHT22;9179;50.968;3.134;2022-07-29T01:35:39;16.50;99.90
18105;DHT22;9179;50.968;3.134;2022-07-29T01:38:09;16.50;99.90
18105;DHT22;9179;50.968;3.134;2022-07-29T01:40:42;16.40;99.90
18105;DHT22;9179;50.968;3.134;2022-07-29T01:43:13;16.40;99.90
18105;DHT22;9179;50.968;3.134;2022-07-29T01:45:45;16.40;99.90
18105;DHT22;9179;50.968;3.134;2022-07-29T01:48:16;16.40;99.90
18105;DHT22;9179;50.968;3.134;2022-07-29T01:50:47;16.40;99.90
18105;DHT22;9179;50.968;3.134;2022-07-29T01:53:18;16.30;99.90
18105;DHT22;9179;50.968;3.134;2022-07-29T01:55:48;16.30;99.90
18105;DHT22;9179;50.968;3.134;2022-07-29T01:58:17;16.10;99.90
18105;DHT22;9179;50.968;3.134;2022-07-29T02:00:48;16.10;99.90
18105;DHT22;9179;50.968;3.134;2022-07-29T02:03:17;16.10;99.90
18105;DHT22;9179;50.968;3.134;2022-07-29T02:05:46;16.10;99.90
18105;DHT22;9179;50.968;3.134;2022-07-29T02:08:15;16.20;99.90
18105;DHT22;9179;50.968;3.134;2022-07-29T02:10:44;16.10;99.90
18105;DHT22;9179;50.968;3.134;2022-07-29T02:13:12;16.10;99.90
18105;DHT22;9179;50.968;3.134;2022-07-29T02:15:43;16.00;99.90
18105;DHT22;9179;50.968;3.134;2022-07-29T02:18:17;16.00;99.90
18105;DHT22;9179;50.968;3.134;2022-07-29T02:20:46;15.90;99.90
18105;DHT22;9179;50.968;3.134;2022-07-29T02:23:17;15.90;99.90
18105;DHT22;9179;50.968;3.134;2022-07-29T02:25:48;15.90;99.90
18105;DHT22;9179;50.968;3.134;2022-07-29T02:28:17;15.90;99.90
18105;DHT22;9179;50.968;3.134;2022-07-29T02:30:46;15.90;99.90
18105;DHT22;9179;50.968;3.134;2022-07-29T02:33:17;15.90;99.90
18105;DHT22;9179;50.968;3.134;2022-07-29T02:35:46;15.80;99.90
18105;DHT22;9179;50.968;3.134;2022-07-29T02:38:15;15.80;99.90
18105;DHT22;9179;50.968;3.134;2022-07-29T02:41:03;15.90;99.90
18105;DHT22;9179;50.968;3.134;2022-07-29T02:43:32;15.80;99.90
18105;DHT22;9179;50.968;3.134;2022-07-29T02:46:03;15.80;99.90
18105;DHT22;9179;50.968;3.134;2022-07-29T02:48:43;15.70;99.90
18105;DHT22;9179;50.968;3.134;2022-07-29T02:54:48;15.70;99.90
18105;DHT22;9179;50.968;3.134;2022-07-29T02:57:22;15.70;99.90
18105;DHT22;9179;50.968;3.134;2022-07-29T02:59:51;15.70;99.90
18105;DHT22;9179;50.968;3.134;2022-07-29T03:02:20;15.60;99.90
18105;DHT22;9179;50.968;3.134;2022-07-29T03:04:52;15.60;99.90
18105;DHT22;9179;50.968;3.134;2022-07-29T03:07:20;15.50;99.90
18105;DHT22;9179;50.968;3.134;2022-07-29T03:09:49;15.50;99.90
18105;DHT22;9179;50.968;3.134;2022-07-29T03:12:17;15.40;99.90
18105;DHT22;9179;50.968;3.134;2022-07-29T03:14:44;15.40;99.90
18105;DHT22;9179;50.968;3.134;2022-07-29T03:17:13;15.40;99.90
18105;DHT22;9179;50.968;3.134;2022-07-29T03:19:40;15.30;99.90
18105;DHT22;9179;50.968;3.134;2022-07-29T03:22:10;15.30;99.90
18105;DHT22;9179;50.968;3.134;2022-07-29T03:24:38;15.20;99.90
18105;DHT22;9179;50.968;3.134;2022-07-29T03:27:05;15.30;99.90
18105;DHT22;9179;50.968;3.134;2022-07-29T03:29:33;15.30;99.90
18105;DHT22;9179;50.968;3.134;2022-07-29T03:32:02;15.20;99.90
18105;DHT22;9179;50.968;3.134;2022-07-29T03:34:29;15.20;99.90
18105;DHT22;9179;50.968;3.134;2022-07-29T03:36:57;15.30;99.90
18105;DHT22;9179;50.968;3.134;2022-07-29T03:39:38;15.20;99.90
18105;DHT22;9179;50.968;3.134;2022-07-29T03:42:07;15.10;99.90
18105;DHT22;9179;50.968;3.134;2022-07-29T03:44:36;15.10;99.90
18105;DHT22;9179;50.968;3.134;2022-07-29T03:47:04;15.10;99.90
18105;DHT22;9179;50.968;3.134;2022-07-29T03:49:36;15.00;99.90
18105;DHT22;9179;50.968;3.134;2022-07-29T03:52:04;15.00;99.90
18105;DHT22;9179;50.968;3.134;2022-07-29T03:54:32;15.00;99.90
18105;DHT22;9179;50.968;3.134;2022-07-29T03:57:01;14.90;99.90
18105;DHT22;9179;50.968;3.134;2022-07-29T03:59:30;14.90;99.90
18105;DHT22;9179;50.968;3.134;2022-07-29T04:01:58;14.90;99.90
18105;DHT22;9179;50.968;3.134;2022-07-29T04:04:26;14.90;99.90
18105;DHT22;9179;50.968;3.134;2022-07-29T04:06:53;14.90;99.90
18105;DHT22;9179;50.968;3.134;2022-07-29T04:09:20;14.90;99.90
18105;DHT22;9179;50.968;3.134;2022-07-29T04:11:48;14.90;99.90
18105;DHT22;9179;50.968;3.134;2022-07-29T04:14:15;14.90;99.90
18105;DHT22;9179;50.968;3.134;2022-07-29T04:16:42;14.90;99.90
18105;DHT22;9179;50.968;3.134;2022-07-29T04:19:09;14.90;99.90
18105;DHT22;9179;50.968;3.134;2022-07-29T04:21:37;14.80;99.90
18105;DHT22;9179;50.968;3.134;2022-07-29T04:24:05;14.90;99.90
18105;DHT22;9179;50.968;3.134;2022-07-29T04:26:33;14.90;99.90
18105;DHT22;9179;50.968;3.134;2022-07-29T04:29:01;14.90;99.90
18105;DHT22;9179;50.968;3.134;2022-07-29T04:31:28;15.00;99.90
18105;DHT22;9179;50.968;3.134;2022-07-29T04:33:55;15.10;99.90
18105;DHT22;9179;50.968;3.134;2022-07-29T04:36:22;15.20;99.90
18105;DHT22;9179;50.968;3.134;2022-07-29T04:38:49;15.20;99.90
18105;DHT22;9179;50.968;3.134;2022-07-29T04:41:22;15.30;99.90
18105;DHT22;9179;50.968;3.134;2022-07-29T04:43:49;15.40;99.90
18105;DHT22;9179;50.968;3.134;2022-07-29T04:46:17;15.50;99.90
18105;DHT22;9179;50.968;3.134;2022-07-29T04:48:45;15.60;99.90
18105;DHT22;9179;50.968;3.134;2022-07-29T04:51:12;15.80;99.90
18105;DHT22;9179;50.968;3.134;2022-07-29T04:53:39;15.90;99.90
18105;DHT22;9179;50.968;3.134;2022-07-29T04:56:06;16.10;99.90
18105;DHT22;9179;50.968;3.134;2022-07-29T04:58:34;16.40;99.90
18105;DHT22;9179;50.968;3.134;2022-07-29T05:01:01;16.80;99.90
18105;DHT22;9179;50.968;3.134;2022-07-29T05:03:29;17.20;99.90
18105;DHT22;9179;50.968;3.134;2022-07-29T05:05:56;17.70;99.90
18105;DHT22;9179;50.968;3.134;2022-07-29T05:08:23;18.20;99.90
18105;DHT22;9179;50.968;3.134;2022-07-29T05:10:50;18.70;99.90
18105;DHT22;9179;50.968;3.134;2022-07-29T05:13:17;19.20;99.90
18105;DHT22;9179;50.968;3.134;2022-07-29T05:15:44;19.70;99.90
18105;DHT22;9179;50.968;3.134;2022-07-29T05:18:11;20.10;99.90
18105;DHT22;9179;50.968;3.134;2022-07-29T05:20:40;20.60;99.90
18105;DHT22;9179;50.968;3.134;2022-07-29T05:23:07;21.10;99.90
18105;DHT22;9179;50.968;3.134;2022-07-29T05:25:34;21.40;99.90
18105;DHT22;9179;50.968;3.134;2022-07-29T05:28:01;21.50;99.90
18105;DHT22;9179;50.968;3.134;2022-07-29T05:30:28;21.90;99.90
18105;DHT22;9179;50.968;3.134;2022-07-29T05:32:55;21.90;99.90
18105;DHT22;9179;50.968;3.134;2022-07-29T05:35:22;21.60;99.90
